Time;durP1;ratioP1;P1;durP2;ratioP2;P2;SDS_P1;SDS_P2;PMS_P1;PMS_P2;Temp;Humidity;BMP_temperature;BMP_pressure;BME280_temperature;BME280_humidity;BME280_pressure;Samples;Min_cycle;Max_cycle;Signal;HPM_P1;HPM_P2
2023/05/13 00:01:50;;;;;;;20.40;14.25;;;;;;;10.09;100.00;100376.25;4871414;29;20529;-82
2023/05/13 00:04:34;;;;;;;20.33;15.07;;;;;;;10.03;100.00;100365.56;4868022;29;20128;-81
2023/05/13 00:07:18;;;;;;;19.23;13.88;;;;;;;9.94;100.00;100364.69;4868278;29;20419;-80
2023/05/13 00:10:02;;;;;;;17.27;12.27;;;;;;;9.94;100.00;100365.53;4870745;29;20056;-80
2023/05/13 00:12:46;;;;;;;17.48;12.63;;;;;;;10.22;100.00;100375.78;4864033;29;20100;-81
2023/05/13 00:15:30;;;;;;;20.13;13.68;;;;;;;10.61;100.00;100373.63;4865421;29;20059;-81
2023/05/13 00:18:14;;;;;;;21.98;14.02;;;;;;;10.55;100.00;100380.34;4867574;29;20115;-82
2023/05/13 00:20:59;;;;;;;23.88;14.55;;;;;;;10.23;100.00;100374.81;4868918;29;20060;-83
2023/05/13 00:23:43;;;;;;;20.67;15.40;;;;;;;10.23;100.00;100363.50;4867775;29;20055;-82
2023/05/13 00:26:27;;;;;;;20.83;14.18;;;;;;;10.32;100.00;100359.09;4869246;29;20137;-81
2023/05/13 00:29:10;;;;;;;20.02;14.55;;;;;;;10.32;100.00;100352.03;4870323;29;20117;-82
2023/05/13 00:31:54;;;;;;;23.65;14.20;;;;;;;10.22;100.00;100357.44;4867124;29;20068;-82
2023/05/13 00:34:38;;;;;;;19.88;13.85;;;;;;;10.22;100.00;100359.22;4867185;29;20056;-81
2023/05/13 00:37:22;;;;;;;20.50;14.60;;;;;;;10.62;100.00;100362.13;4868905;29;20101;-81
2023/05/13 00:40:16;;;;;;;22.65;14.68;;;;;;;10.34;100.00;100363.19;4872432;29;20216;-82
2023/05/13 00:43:00;;;;;;;21.90;14.38;;;;;;;10.05;100.00;100351.31;4865556;29;20044;-82
2023/05/13 00:45:44;;;;;;;24.83;14.60;;;;;;;10.36;100.00;100365.69;4870295;29;20109;-83
2023/05/13 00:48:28;;;;;;;22.83;14.73;;;;;;;10.10;100.00;100356.06;4869076;29;20100;-82
2023/05/13 00:51:12;;;;;;;24.15;16.23;;;;;;;10.13;100.00;100367.06;4870143;29;20491;-82
2023/05/13 00:53:57;;;;;;;22.52;15.63;;;;;;;9.77;100.00;100356.75;4867699;29;20059;-82
2023/05/13 00:56:41;;;;;;;22.55;15.75;;;;;;;9.74;100.00;100349.22;4865498;29;20480;-81
2023/05/13 00:59:27;;;;;;;21.67;16.50;;;;;;;9.71;100.00;100352.94;4864945;29;20048;-81
2023/05/13 01:02:34;;;;;;;23.98;17.35;;;;;;;9.57;100.00;100354.34;4868799;29;20053;-82
2023/05/13 01:05:40;;;;;;;27.75;18.55;;;;;;;9.76;100.00;100349.88;4867851;29;20139;-82
2023/05/13 01:08:28;;;;;;;25.92;18.08;;;;;;;10.07;100.00;100359.84;4865066;29;20067;-82
2023/05/13 01:11:19;;;;;;;26.15;17.13;;;;;;;9.98;100.00;100363.41;4866397;29;20044;-83
2023/05/13 01:14:11;;;;;;;25.38;16.08;;;;;;;9.70;100.00;100353.94;4867690;29;20134;-82
2023/05/13 01:17:23;;;;;;;20.70;15.93;;;;;;;9.86;100.00;100347.97;4866132;29;20048;-82
2023/05/13 01:20:08;;;;;;;25.23;17.15;;;;;;;9.60;100.00;100345.38;4867126;29;20094;-82
2023/05/13 01:22:52;;;;;;;21.20;15.73;;;;;;;9.80;100.00;100358.25;4868214;29;20100;-82
2023/05/13 01:25:38;;;;;;;27.60;16.17;;;;;;;9.99;100.00;100350.16;4867521;29;20049;-83
2023/05/13 01:28:22;;;;;;;26.50;17.25;;;;;;;9.48;100.00;100342.19;4868061;29;20084;-82
2023/05/13 01:31:09;;;;;;;25.10;17.35;;;;;;;9.90;100.00;100350.28;4866866;29;20097;-82
2023/05/13 01:33:53;;;;;;;26.75;18.58;;;;;;;10.05;100.00;100347.84;4867507;29;20047;-83
2023/05/13 01:36:38;;;;;;;26.92;18.83;;;;;;;9.95;100.00;100337.50;4868069;29;20053;-82
2023/05/13 01:39:24;;;;;;;28.00;17.65;;;;;;;9.92;100.00;100329.94;4867950;29;20108;-83
2023/05/13 01:42:08;;;;;;;24.13;16.27;;;;;;;10.02;100.00;100337.69;4869605;29;20512;-82
2023/05/13 01:44:52;;;;;;;19.95;15.20;;;;;;;9.72;100.00;100333.63;4862360;29;20114;-83
2023/05/13 01:47:36;;;;;;;24.05;15.73;;;;;;;10.05;100.00;100340.81;4867552;29;20076;-82
2023/05/13 01:50:20;;;;;;;24.45;14.15;;;;;;;9.56;100.00;100344.84;4874241;29;20102;-82
2023/05/13 01:53:05;;;;;;;21.45;14.43;;;;;;;9.68;100.00;100344.59;4870290;29;20056;-83
2023/05/13 01:55:49;;;;;;;19.35;15.35;;;;;;;9.92;100.00;100337.81;4872788;29;20103;-82
2023/05/13 01:58:33;;;;;;;24.73;17.83;;;;;;;9.79;100.00;100338.25;4873098;29;20045;-83
2023/05/13 02:01:17;;;;;;;26.63;17.10;;;;;;;9.87;100.00;100333.03;4870501;29;20464;-82
2023/05/13 02:04:01;;;;;;;24.05;16.80;;;;;;;10.06;100.00;100339.00;4869356;29;20044;-82
2023/05/13 02:06:46;;;;;;;26.40;17.30;;;;;;;9.71;100.00;100324.13;4873103;29;20052;-83
2023/05/13 02:09:30;;;;;;;20.15;15.13;;;;;;;9.50;100.00;100339.41;4873927;29;20068;-82
2023/05/13 02:12:14;;;;;;;22.08;15.43;;;;;;;9.60;100.00;100344.53;4874743;29;20084;-82
2023/05/13 02:14:58;;;;;;;23.73;16.75;;;;;;;9.43;100.00;100337.41;4874418;29;20451;-82
2023/05/13 02:17:42;;;;;;;22.70;16.13;;;;;;;9.72;100.00;100332.81;4870805;29;20045;-81
2023/05/13 02:20:27;;;;;;;26.42;17.90;;;;;;;9.78;100.00;100331.38;4871239;29;20412;-82
2023/05/13 02:23:11;;;;;;;24.15;16.92;;;;;;;9.86;100.00;100334.84;4870169;29;20073;-82
2023/05/13 02:25:55;;;;;;;24.33;16.48;;;;;;;9.47;100.00;100340.56;4871652;29;20150;-82
2023/05/13 02:28:39;;;;;;;23.88;16.85;;;;;;;9.53;100.00;100324.19;4875283;29;20415;-82
2023/05/13 02:31:23;;;;;;;24.95;16.70;;;;;;;9.60;100.00;100339.28;4873416;29;20181;-82
2023/05/13 02:34:07;;;;;;;25.80;16.70;;;;;;;9.72;100.00;100322.31;4873529;29;20409;-82
2023/05/13 02:36:51;;;;;;;28.73;18.48;;;;;;;9.49;100.00;100337.75;4871556;29;20093;-82
2023/05/13 02:39:35;;;;;;;27.20;19.33;;;;;;;10.00;100.00;100337.84;4874901;29;20059;-83
2023/05/13 02:42:19;;;;;;;29.55;18.65;;;;;;;9.92;100.00;100320.25;4868924;29;20051;-83
2023/05/13 02:45:04;;;;;;;28.42;17.58;;;;;;;10.10;100.00;100330.66;4867697;29;20052;-83
2023/05/13 02:47:48;;;;;;;24.70;17.02;;;;;;;10.06;100.00;100329.34;4867546;29;20077;-82
2023/05/13 02:50:32;;;;;;;27.08;18.63;;;;;;;10.21;100.00;100331.34;4870314;29;20100;-82
2023/05/13 02:53:16;;;;;;;24.77;17.45;;;;;;;9.67;100.00;100329.84;4872696;29;20048;-82
2023/05/13 02:56:00;;;;;;;23.15;16.83;;;;;;;9.77;100.00;100324.47;4873671;29;20391;-83
2023/05/13 02:58:44;;;;;;;28.90;18.02;;;;;;;9.54;100.00;100319.78;4874126;29;20048;-81
2023/05/13 03:01:28;;;;;;;24.65;18.25;;;;;;;9.70;100.00;100319.03;4869202;29;20411;-82
2023/05/13 03:04:12;;;;;;;27.15;18.95;;;;;;;10.00;100.00;100325.56;4872160;29;20072;-82
2023/05/13 03:06:56;;;;;;;20.75;16.25;;;;;;;9.96;100.00;100324.22;4868387;29;20134;-82
2023/05/13 03:09:41;;;;;;;27.08;18.63;;;;;;;10.26;100.00;100318.59;4868007;29;20051;-82
2023/05/13 03:12:25;;;;;;;27.38;18.52;;;;;;;10.09;100.00;100318.53;4871251;29;20036;-81
2023/05/13 03:15:09;;;;;;;31.40;20.67;;;;;;;9.61;100.00;100319.97;4868438;29;20400;-82
2023/05/13 03:17:53;;;;;;;35.58;20.60;;;;;;;9.53;100.00;100316.34;4869524;29;20110;-81
2023/05/13 03:20:38;;;;;;;29.88;21.00;;;;;;;9.27;100.00;100317.19;4874341;29;20068;-82
2023/05/13 03:23:22;;;;;;;27.00;19.70;;;;;;;9.63;100.00;100321.47;4869667;29;20077;-83
2023/05/13 03:26:05;;;;;;;29.67;20.65;;;;;;;9.76;100.00;100313.16;4866171;29;20068;-82
2023/05/13 03:28:49;;;;;;;31.23;21.02;;;;;;;9.43;100.00;100315.63;4869357;29;20064;-82
2023/05/13 03:31:33;;;;;;;32.75;21.70;;;;;;;9.68;100.00;100316.56;4864941;29;20048;-82
2023/05/13 03:34:17;;;;;;;30.73;21.55;;;;;;;9.66;100.00;100312.47;4865666;29;20108;-82
2023/05/13 03:37:01;;;;;;;29.70;19.35;;;;;;;9.40;100.00;100303.66;4866598;29;20078;-82
2023/05/13 03:39:45;;;;;;;29.23;18.95;;;;;;;9.63;100.00;100313.59;4864928;29;20067;-82
2023/05/13 03:42:29;;;;;;;26.77;19.33;;;;;;;9.84;100.00;100315.84;4870569;29;20043;-83
2023/05/13 03:45:14;;;;;;;23.60;17.95;;;;;;;9.85;100.00;100311.38;4867217;29;20057;-83
2023/05/13 03:47:58;;;;;;;26.27;17.92;;;;;;;9.66;100.00;100307.22;4869632;29;20515;-83
2023/05/13 03:50:42;;;;;;;24.10;17.00;;;;;;;10.01;100.00;100321.13;4869457;29;20051;-84
2023/05/13 03:53:26;;;;;;;23.45;15.75;;;;;;;9.71;100.00;100318.88;4872624;29;20063;-83
2023/05/13 03:56:10;;;;;;;21.13;15.45;;;;;;;9.90;100.00;100335.34;4866899;29;20140;-83
2023/05/13 03:58:54;;;;;;;26.00;15.15;;;;;;;10.09;100.00;100323.78;4870673;29;20544;-83
2023/05/13 04:01:38;;;;;;;23.52;14.98;;;;;;;9.82;100.00;100333.50;4869616;29;20415;-83
2023/05/13 04:04:22;;;;;;;21.20;14.95;;;;;;;9.89;100.00;100323.19;4868156;29;20476;-83
2023/05/13 04:07:06;;;;;;;24.20;14.50;;;;;;;9.88;100.00;100326.00;4868399;29;20079;-83
2023/05/13 04:09:50;;;;;;;23.10;14.52;;;;;;;9.75;100.00;100339.56;4868576;29;20040;-82
2023/05/13 04:12:35;;;;;;;18.80;13.10;;;;;;;9.44;100.00;100330.38;4865846;29;20184;-82
2023/05/13 04:15:18;;;;;;;23.38;13.35;;;;;;;9.57;100.00;100328.16;4870404;29;20515;-81
2023/05/13 04:18:02;;;;;;;23.65;13.93;;;;;;;9.67;100.00;100328.03;4867292;29;20557;-81
2023/05/13 04:20:46;;;;;;;21.30;13.68;;;;;;;9.54;100.00;100325.84;4870895;29;20098;-82
2023/05/13 04:23:30;;;;;;;22.08;14.80;;;;;;;9.54;100.00;100320.59;4869463;29;20448;-82
2023/05/13 04:26:14;;;;;;;26.83;17.42;;;;;;;9.15;100.00;100313.16;4871137;29;20101;-83
2023/05/13 04:28:58;;;;;;;29.10;18.20;;;;;;;9.01;100.00;100330.25;4867514;29;20531;-81
2023/05/13 04:31:43;;;;;;;24.98;15.38;;;;;;;9.29;100.00;100330.09;4867989;29;20560;-81
2023/05/13 04:34:27;;;;;;;29.08;16.75;;;;;;;9.22;100.00;100327.28;4871984;29;20056;-82
2023/05/13 04:37:11;;;;;;;23.48;16.25;;;;;;;9.26;100.00;100331.25;4867322;29;20083;-82
2023/05/13 04:39:55;;;;;;;25.48;16.73;;;;;;;9.65;100.00;100340.47;4871600;29;20522;-80
2023/05/13 04:42:39;;;;;;;27.13;16.25;;;;;;;9.24;100.00;100340.25;4869151;29;20108;-80
2023/05/13 04:45:23;;;;;;;24.35;15.77;;;;;;;9.17;100.00;100340.03;4866235;29;20048;-81
2023/05/13 04:48:07;;;;;;;23.95;15.15;;;;;;;9.54;100.00;100330.28;4865975;29;20093;-81
2023/05/13 04:50:51;;;;;;;20.00;13.93;;;;;;;9.77;100.00;100340.22;4864386;29;20129;-82
2023/05/13 04:53:35;;;;;;;24.17;16.13;;;;;;;9.30;100.00;100339.63;4865241;29;20060;-81
2023/05/13 04:56:19;;;;;;;23.17;16.50;;;;;;;9.52;100.00;100347.94;4868322;29;20105;-81
2023/05/13 04:59:04;;;;;;;26.85;15.70;;;;;;;8.89;100.00;100348.00;4872439;29;20096;-81
2023/05/13 05:01:48;;;;;;;26.92;15.95;;;;;;;9.23;100.00;100339.41;4868862;29;20076;-81
2023/05/13 05:04:32;;;;;;;20.95;14.98;;;;;;;9.34;100.00;100334.91;4868720;29;20081;-81
2023/05/13 05:07:16;;;;;;;22.83;15.52;;;;;;;9.46;100.00;100352.03;4869137;29;20063;-82
2023/05/13 05:09:59;;;;;;;20.50;13.27;;;;;;;9.58;100.00;100342.91;4867057;29;20167;-82
2023/05/13 05:12:43;;;;;;;21.23;13.23;;;;;;;9.23;100.00;100354.31;4864968;29;20044;-81
2023/05/13 05:15:28;;;;;;;15.80;11.88;;;;;;;9.08;100.00;100352.25;4867932;29;20051;-81
2023/05/13 05:18:12;;;;;;;24.42;15.43;;;;;;;9.02;100.00;100344.16;4867172;29;20105;-82
2023/05/13 05:20:56;;;;;;;23.88;14.73;;;;;;;9.18;100.00;100330.38;4864728;29;20124;-81
2023/05/13 05:23:40;;;;;;;20.10;13.65;;;;;;;9.36;100.00;100364.38;4868223;29;20075;-81
2023/05/13 05:26:25;;;;;;;20.40;14.32;;;;;;;9.21;100.00;100362.31;4871528;29;20108;-81
2023/05/13 05:29:09;;;;;;;20.80;13.70;;;;;;;9.32;100.00;100356.00;4871711;29;20069;-82
2023/05/13 05:31:53;;;;;;;20.95;13.88;;;;;;;9.39;100.00;100350.97;4871309;29;20073;-83
2023/05/13 05:34:37;;;;;;;20.25;14.15;;;;;;;9.61;100.00;100351.41;4870387;29;20078;-84
2023/05/13 05:37:21;;;;;;;22.20;15.07;;;;;;;9.26;100.00;100367.94;4875275;29;20108;-84
2023/05/13 05:40:05;;;;;;;20.90;14.98;;;;;;;9.45;100.00;100354.78;4872255;29;20053;-84
2023/05/13 05:42:49;;;;;;;23.48;14.10;;;;;;;9.53;100.00;100360.91;4872232;29;20514;-83
2023/05/13 05:45:34;;;;;;;20.55;13.25;;;;;;;10.10;100.00;100351.66;4873366;29;20077;-83
2023/05/13 05:48:19;;;;;;;20.00;14.48;;;;;;;10.19;100.00;100368.25;4876187;29;20080;-84
2023/05/13 05:51:03;;;;;;;20.70;12.85;;;;;;;10.09;100.00;100371.00;4875117;29;20183;-84
2023/05/13 05:53:47;;;;;;;16.88;11.25;;;;;;;9.65;100.00;100376.38;4866042;29;20101;-83
2023/05/13 05:56:31;;;;;;;13.38;10.15;;;;;;;9.18;100.00;100367.88;4870647;29;20092;-83
2023/05/13 05:59:15;;;;;;;15.00;10.70;;;;;;;9.41;100.00;100372.59;4874068;29;20052;-83
2023/05/13 06:01:59;;;;;;;14.63;10.95;;;;;;;9.43;100.00;100378.50;4877513;29;20052;-82
2023/05/13 06:04:43;;;;;;;16.67;11.07;;;;;;;9.76;100.00;100370.03;4872523;29;20049;-84
2023/05/13 06:07:27;;;;;;;16.25;10.32;;;;;;;10.05;100.00;100368.84;4872408;29;20404;-84
2023/05/13 06:10:11;;;;;;;12.52;9.75;;;;;;;10.14;100.00;100368.72;4869464;29;20048;-84
2023/05/13 06:12:55;;;;;;;14.60;10.73;;;;;;;10.11;100.00;100371.66;4872005;29;20497;-83
2023/05/13 06:15:39;;;;;;;17.30;11.35;;;;;;;9.60;100.00;100361.09;4872142;29;20064;-84
2023/05/13 06:18:25;;;;;;;16.13;12.10;;;;;;;9.60;100.00;100376.00;4870513;29;20048;-84
2023/05/13 06:21:09;;;;;;;16.00;10.95;;;;;;;10.19;100.00;100375.28;4872188;29;20106;-84
2023/05/13 06:23:53;;;;;;;16.27;11.43;;;;;;;10.11;100.00;100373.44;4871528;29;20073;-84
2023/05/13 06:26:37;;;;;;;16.85;11.25;;;;;;;9.86;100.00;100386.47;4869982;29;20048;-84
2023/05/13 06:29:21;;;;;;;19.38;12.48;;;;;;;10.11;100.00;100383.94;4871165;29;20052;-83
2023/05/13 06:32:06;;;;;;;20.48;12.25;;;;;;;10.21;100.00;100383.81;4874595;29;20043;-83
2023/05/13 06:34:51;;;;;;;17.02;11.75;;;;;;;10.42;100.00;100394.78;4868016;29;20086;-81
2023/05/13 06:37:35;;;;;;;17.83;12.00;;;;;;;10.10;100.00;100398.03;4866199;29;20089;-82
2023/05/13 06:40:19;;;;;;;16.35;12.35;;;;;;;10.34;100.00;100394.69;4870835;29;20072;-82
2023/05/13 06:43:03;;;;;;;18.50;13.57;;;;;;;10.46;100.00;100394.44;4868200;29;20068;-82
2023/05/13 06:45:47;;;;;;;17.38;12.30;;;;;;;10.62;100.00;100394.50;4868754;29;20096;-83
2023/05/13 06:48:31;;;;;;;21.55;14.50;;;;;;;10.22;100.00;100391.53;4866886;29;20140;-87
2023/05/13 06:51:16;;;;;;;17.45;13.00;;;;;;;9.58;100.00;100384.84;4873560;29;20511;-86
2023/05/13 06:54:00;;;;;;;16.77;11.75;;;;;;;10.34;100.00;100399.94;4876090;29;20097;-87
2023/05/13 06:56:44;;;;;;;20.73;13.90;;;;;;;10.37;100.00;100390.94;4870736;29;20109;-85
2023/05/13 06:59:29;;;;;;;19.30;13.52;;;;;;;10.47;100.00;100393.47;4867606;29;20060;-87
2023/05/13 07:02:13;;;;;;;24.40;14.90;;;;;;;9.96;100.00;100386.34;4875135;29;20054;-88
2023/05/13 07:04:57;;;;;;;20.52;14.38;;;;;;;10.33;100.00;100393.06;4870777;29;20128;-87
2023/05/13 07:07:42;;;;;;;18.85;14.45;;;;;;;10.35;100.00;100391.09;4867367;29;20408;-85
2023/05/13 07:10:26;;;;;;;20.30;14.02;;;;;;;10.92;100.00;100388.78;4867752;29;20049;-85
2023/05/13 07:13:10;;;;;;;17.20;13.88;;;;;;;10.09;100.00;100364.91;4874457;29;20093;-85
2023/05/13 07:15:54;;;;;;;17.55;14.45;;;;;;;10.20;100.00;100376.94;4871677;29;20131;-85
2023/05/13 07:18:39;;;;;;;18.17;13.43;;;;;;;10.52;100.00;100393.78;4871705;29;20085;-85
2023/05/13 07:21:23;;;;;;;19.38;13.63;;;;;;;10.21;100.00;100378.56;4873890;29;20449;-84
2023/05/13 07:24:07;;;;;;;20.90;14.50;;;;;;;10.40;100.00;100388.00;4867487;29;20048;-83
2023/05/13 07:26:51;;;;;;;21.13;15.20;;;;;;;11.19;100.00;100379.72;4871351;29;20083;-84
2023/05/13 07:29:35;;;;;;;22.00;14.75;;;;;;;11.46;100.00;100387.41;4870746;29;20080;-82
2023/05/13 07:32:19;;;;;;;22.15;17.33;;;;;;;11.27;100.00;100394.66;4867981;29;20090;-82
2023/05/13 07:35:04;;;;;;;27.55;17.02;;;;;;;11.44;100.00;100390.22;4873653;29;20047;-83
2023/05/13 07:37:47;;;;;;;24.17;17.63;;;;;;;11.09;100.00;100386.97;4869742;29;20068;-86
2023/05/13 07:40:31;;;;;;;25.77;18.23;;;;;;;11.29;100.00;100364.63;4879313;29;20055;-89
2023/05/13 07:43:22;;;;;;;26.30;18.05;;;;;;;10.98;100.00;100386.28;4869322;29;20048;-86
2023/05/13 07:46:07;;;;;;;22.98;17.70;;;;;;;10.70;100.00;100370.00;4870032;29;20109;-88
2023/05/13 07:48:51;;;;;;;22.42;16.83;;;;;;;11.22;100.00;100382.03;4874791;29;20052;-88
2023/05/13 07:51:35;;;;;;;24.38;16.98;;;;;;;11.60;100.00;100378.03;4876425;29;20134;-82
2023/05/13 07:54:20;;;;;;;22.52;17.83;;;;;;;11.51;100.00;100390.38;4867333;29;20080;-83
2023/05/13 07:57:04;;;;;;;20.92;15.77;;;;;;;11.63;100.00;100356.66;4866875;29;20060;-83
2023/05/13 07:59:47;;;;;;;18.13;15.50;;;;;;;11.77;100.00;100358.56;4871455;29;20502;-82
2023/05/13 08:02:33;;;;;;;14.90;13.20;;;;;;;11.53;100.00;100373.44;4866638;29;20105;-84
2023/05/13 08:05:17;;;;;;;15.48;13.48;;;;;;;11.29;100.00;100372.50;4868151;29;20049;-84
2023/05/13 08:08:02;;;;;;;17.63;13.10;;;;;;;11.86;100.00;100372.53;4868129;29;20060;-86
2023/05/13 08:10:47;;;;;;;18.92;13.60;;;;;;;11.97;100.00;100366.06;4870171;29;20132;-85
2023/05/13 08:13:31;;;;;;;13.77;12.32;;;;;;;12.06;100.00;100340.56;4868822;29;20499;-85
2023/05/13 08:16:15;;;;;;;16.38;13.38;;;;;;;12.85;100.00;100372.00;4872713;29;20583;-81
2023/05/13 08:18:59;;;;;;;12.48;11.18;;;;;;;13.53;100.00;100363.34;4872037;29;20044;-80
2023/05/13 08:21:43;;;;;;;13.15;11.73;;;;;;;13.09;100.00;100366.72;4863186;29;20064;-80
2023/05/13 08:24:27;;;;;;;13.13;10.10;;;;;;;13.14;100.00;100362.56;4864634;29;20088;-82
2023/05/13 08:27:11;;;;;;;12.93;9.52;;;;;;;13.09;100.00;100357.00;4868512;29;20472;-81
2023/05/13 08:29:55;;;;;;;10.35;9.10;;;;;;;13.52;100.00;100353.00;4868822;29;20539;-84
2023/05/13 08:32:40;;;;;;;12.57;9.50;;;;;;;13.65;100.00;100347.09;4867742;29;20064;-81
2023/05/13 08:35:24;;;;;;;10.90;9.52;;;;;;;13.66;100.00;100341.63;4868671;29;20120;-83
2023/05/13 08:38:08;;;;;;;12.40;9.60;;;;;;;14.16;100.00;100367.41;4867766;29;20518;-81
2023/05/13 08:40:52;;;;;;;13.70;9.82;;;;;;;13.36;100.00;100356.56;4868288;29;20496;-80
2023/05/13 08:43:38;;;;;;;9.63;8.70;;;;;;;13.11;100.00;100362.91;4867931;29;20068;-83
2023/05/13 08:46:23;;;;;;;14.90;9.15;;;;;;;13.64;100.00;100359.44;4868098;29;20114;-83
2023/05/13 08:49:08;;;;;;;11.23;8.50;;;;;;;13.42;100.00;100351.41;4870387;29;20132;-82
2023/05/13 08:51:52;;;;;;;10.88;9.20;;;;;;;13.60;100.00;100365.28;4870638;29;20048;-84
2023/05/13 08:54:37;;;;;;;11.73;9.02;;;;;;;13.09;100.00;100366.72;4868179;29;20189;-80
2023/05/13 08:57:21;;;;;;;11.00;9.20;;;;;;;12.89;100.00;100358.50;4865687;29;20072;-80
2023/05/13 09:00:06;;;;;;;10.75;9.57;;;;;;;14.17;100.00;100368.25;4864679;29;20093;-81
2023/05/13 09:02:50;;;;;;;13.15;9.02;;;;;;;14.13;100.00;100362.50;4869967;29;20067;-80
2023/05/13 09:05:38;;;;;;;10.27;9.32;;;;;;;14.08;100.00;100355.13;4866881;29;20060;-80
2023/05/13 09:08:22;;;;;;;14.15;9.98;;;;;;;14.05;100.00;100371.34;4872694;29;20510;-79
2023/05/13 09:11:06;;;;;;;10.27;9.18;;;;;;;14.76;100.00;100380.47;4866578;29;20052;-80
2023/05/13 09:14:02;;;;;;;15.70;9.45;;;;;;;14.86;100.00;100372.22;4866442;29;20060;-80
2023/05/13 09:16:47;;;;;;;11.23;10.02;;;;;;;13.82;100.00;100345.91;4869349;29;20125;-79
2023/05/13 09:19:31;;;;;;;11.43;9.90;;;;;;;13.31;100.00;100380.88;4867934;29;20120;-79
2023/05/13 09:22:17;;;;;;;12.23;10.02;;;;;;;13.72;100.00;100371.72;4869212;29;20404;-81
2023/05/13 09:25:01;;;;;;;13.10;11.18;;;;;;;13.66;100.00;100351.34;4868947;29;20408;-81
2023/05/13 09:27:50;;;;;;;12.25;11.02;;;;;;;14.12;100.00;100369.59;4866334;29;20053;-80
2023/05/13 09:30:40;;;;;;;13.05;11.73;;;;;;;14.59;100.00;100371.94;4865891;29;20056;-81
2023/05/13 09:33:29;;;;;;;11.93;10.82;;;;;;;15.11;100.00;100364.72;4863860;29;20052;-82
2023/05/13 09:36:14;;;;;;;11.48;10.38;;;;;;;14.63;100.00;100362.63;4866435;29;20132;-79
2023/05/13 09:38:58;;;;;;;12.38;11.02;;;;;;;14.25;100.00;100363.69;4868471;29;20093;-81
2023/05/13 09:41:42;;;;;;;12.85;11.65;;;;;;;14.33;100.00;100368.00;4866503;29;20541;-79
2023/05/13 09:44:27;;;;;;;13.02;11.73;;;;;;;14.45;100.00;100373.63;4867609;29;20060;-81
2023/05/13 09:47:18;;;;;;;14.23;12.73;;;;;;;13.99;100.00;100366.81;4872820;29;20497;-80
2023/05/13 09:50:03;;;;;;;14.35;12.85;;;;;;;14.22;100.00;100371.94;4866417;29;20101;-78
2023/05/13 09:52:48;;;;;;;13.93;12.48;;;;;;;14.91;100.00;100372.47;4863371;29;20129;-78
2023/05/13 09:55:32;;;;;;;15.60;12.45;;;;;;;14.81;100.00;100374.63;4869953;29;20415;-82
2023/05/13 09:58:19;;;;;;;12.82;11.32;;;;;;;15.23;100.00;100377.38;4867847;29;20049;-81
2023/05/13 10:01:03;;;;;;;14.55;13.25;;;;;;;15.16;100.00;100377.34;4865520;29;20052;-80
2023/05/13 10:03:50;;;;;;;14.85;13.40;;;;;;;15.84;100.00;100368.81;4869023;29;20179;-79
2023/05/13 10:06:37;;;;;;;13.75;12.45;;;;;;;16.30;100.00;100361.25;4869096;29;20097;-80
2023/05/13 10:09:23;;;;;;;14.77;13.25;;;;;;;16.92;99.10;100358.53;4868632;29;20075;-77
2023/05/13 10:12:09;;;;;;;14.85;13.45;;;;;;;16.95;96.87;100347.50;4869229;29;20057;-80
2023/05/13 10:14:54;;;;;;;16.58;14.93;;;;;;;17.20;96.49;100365.47;4869225;29;20560;-81
2023/05/13 10:17:38;;;;;;;17.05;15.32;;;;;;;16.87;95.12;100362.78;4868731;29;20125;-79
2023/05/13 10:20:24;;;;;;;16.27;14.68;;;;;;;16.55;95.33;100358.06;4869897;29;20134;-79
2023/05/13 10:23:10;;;;;;;16.75;15.15;;;;;;;15.79;97.11;100352.72;4864054;29;20079;-78
2023/05/13 10:25:55;;;;;;;17.98;16.13;;;;;;;16.03;97.23;100352.44;4871044;29;20068;-80
2023/05/13 10:28:41;;;;;;;20.05;17.98;;;;;;;16.35;97.66;100340.31;4866248;29;20071;-79
2023/05/13 10:31:26;;;;;;;17.50;15.75;;;;;;;17.04;93.53;100344.66;4872866;29;20040;-79
2023/05/13 10:34:11;;;;;;;16.33;14.82;;;;;;;16.56;93.12;100333.19;4872817;29;20575;-80
2023/05/13 10:37:18;;;;;;;17.40;15.70;;;;;;;17.37;91.51;100328.69;4868831;29;20121;-78
2023/05/13 10:40:20;;;;;;;17.33;15.70;;;;;;;18.04;89.83;100332.97;4870134;29;20176;-79
2023/05/13 10:43:27;;;;;;;16.77;14.55;;;;;;;18.49;88.23;100326.00;4870118;29;20452;-79
2023/05/13 10:46:12;;;;;;;15.63;13.88;;;;;;;18.18;88.51;100327.59;4868491;29;20108;-79
2023/05/13 10:48:58;;;;;;;12.90;11.70;;;;;;;18.12;89.08;100326.59;4869111;29;20072;-79
2023/05/13 10:51:48;;;;;;;13.43;12.20;;;;;;;19.02;86.08;100338.09;4869607;29;20101;-79
2023/05/13 10:54:37;;;;;;;13.30;12.10;;;;;;;17.38;87.11;100338.28;4870378;29;20053;-79
2023/05/13 10:57:34;;;;;;;13.02;11.88;;;;;;;17.84;86.94;100333.06;4868749;29;20096;-78
2023/05/13 11:00:19;;;;;;;12.50;11.20;;;;;;;18.72;85.97;100320.06;4869675;29;20060;-80
2023/05/13 11:03:28;;;;;;;13.32;12.13;;;;;;;17.45;87.23;100340.13;4864509;29;20048;-79
2023/05/13 11:06:12;;;;;;;11.80;10.70;;;;;;;17.84;85.13;100331.19;4866071;29;20067;-79
2023/05/13 11:08:56;;;;;;;12.57;11.38;;;;;;;17.38;86.83;100326.84;4869985;29;20204;-81
2023/05/13 11:11:41;;;;;;;11.48;10.38;;;;;;;17.10;87.61;100327.94;4865521;29;20129;-80
2023/05/13 11:14:26;;;;;;;12.38;11.27;;;;;;;18.01;87.98;100317.44;4868700;29;20055;-80
2023/05/13 11:17:11;;;;;;;11.65;10.55;;;;;;;18.41;85.80;100317.22;4873235;29;20047;-80
2023/05/13 11:19:56;;;;;;;11.18;10.25;;;;;;;18.32;83.90;100312.38;4870312;29;20521;-79
2023/05/13 11:22:40;;;;;;;11.65;10.55;;;;;;;19.00;83.21;100307.38;4866317;29;20515;-78
2023/05/13 11:25:26;;;;;;;12.63;11.45;;;;;;;18.62;81.54;100296.63;4866935;29;20084;-79
2023/05/13 11:28:15;;;;;;;11.90;10.85;;;;;;;18.73;82.69;100307.59;4867545;29;20137;-79
2023/05/13 11:31:14;;;;;;;15.38;12.45;;;;;;;18.42;88.39;100297.59;4869825;29;20411;-80
2023/05/13 11:34:10;;;;;;;12.32;11.13;;;;;;;18.39;87.21;100298.03;4867627;29;20125;-79
2023/05/13 11:37:06;;;;;;;13.38;12.07;;;;;;;17.79;86.50;100290.38;4869776;29;20092;-79
2023/05/13 11:39:49;;;;;;;14.63;12.00;;;;;;;16.93;89.15;100298.31;4872937;29;20057;-79
2023/05/13 11:42:34;;;;;;;13.48;12.18;;;;;;;16.53;90.76;100307.09;4865983;29;20052;-79
2023/05/13 11:45:21;;;;;;;14.63;13.30;;;;;;;16.49;91.43;100300.56;4870391;29;20048;-79
2023/05/13 11:48:22;;;;;;;13.10;11.80;;;;;;;16.42;90.57;100282.03;4868187;29;20105;-81
2023/05/13 11:51:06;;;;;;;13.55;12.25;;;;;;;16.49;91.42;100290.78;4870020;29;20068;-82
2023/05/13 11:53:54;;;;;;;16.55;14.07;;;;;;;16.40;91.70;100292.81;4867933;29;20072;-83
2023/05/13 11:56:41;;;;;;;14.85;13.38;;;;;;;15.78;91.79;100292.00;4872689;29;20106;-84
2023/05/13 11:59:26;;;;;;;14.25;12.85;;;;;;;15.97;93.21;100287.84;4868120;29;20044;-83
2023/05/13 12:02:10;;;;;;;17.55;15.15;;;;;;;15.97;93.74;100279.91;4868591;29;20129;-82
2023/05/13 12:04:54;;;;;;;16.52;14.48;;;;;;;15.93;94.58;100273.38;4874708;29;20056;-84
2023/05/13 12:07:38;;;;;;;15.65;13.95;;;;;;;16.01;94.67;100283.78;4865938;29;20056;-83
2023/05/13 12:10:23;;;;;;;14.70;13.18;;;;;;;16.04;96.49;100275.41;4870311;29;20132;-82
2023/05/13 12:13:08;;;;;;;14.55;13.05;;;;;;;15.85;96.17;100280.44;4872357;29;20099;-83
2023/05/13 12:15:53;;;;;;;14.48;13.07;;;;;;;15.77;95.34;100272.66;4863518;29;20072;-83
2023/05/13 12:18:37;;;;;;;15.93;13.02;;;;;;;15.59;95.48;100262.59;4868830;29;20044;-82
2023/05/13 12:21:21;;;;;;;16.48;13.50;;;;;;;15.98;95.79;100268.28;4866605;29;20510;-83
2023/05/13 12:24:20;;;;;;;16.00;14.30;;;;;;;16.10;99.39;100277.25;4867944;29;20097;-82
2023/05/13 12:27:06;;;;;;;16.33;13.32;;;;;;;16.33;94.13;100264.69;4866600;29;20044;-83
2023/05/13 12:29:53;;;;;;;14.05;12.60;;;;;;;16.75;93.25;100256.53;4866184;29;20056;-84